sensor_id;sensor_type;location;lat;lon;timestamp;P1;durP1;ratioP1;P2;durP2;ratioP2
22024;SDS011;11176;51.448;6.650;2023-05-07T00:00:14;6.80;;;5.25;;
22024;SDS011;11176;51.448;6.650;2023-05-07T00:02:44;5.93;;;4.85;;
22024;SDS011;11176;51.448;6.650;2023-05-07T00:05:12;6.00;;;4.68;;
22024;SDS011;11176;51.448;6.650;2023-05-07T00:07:39;7.97;;;5.22;;
22024;SDS011;11176;51.448;6.650;2023-05-07T00:10:07;8.50;;;5.47;;
22024;SDS011;11176;51.448;6.650;2023-05-07T00:12:34;7.90;;;5.53;;
22024;SDS011;11176;51.448;6.650;2023-05-07T00:15:04;8.65;;;6.57;;
22024;SDS011;11176;51.448;6.650;2023-05-07T00:17:32;7.03;;;5.53;;
22024;SDS011;11176;51.448;6.650;2023-05-07T00:19:59;7.40;;;5.80;;
22024;SDS011;11176;51.448;6.650;2023-05-07T00:22:26;9.88;;;6.22;;
22024;SDS011;11176;51.448;6.650;2023-05-07T00:24:52;7.07;;;5.60;;
22024;SDS011;11176;51.448;6.650;2023-05-07T00:27:18;9.35;;;5.82;;
22024;SDS011;11176;51.448;6.650;2023-05-07T00:29:45;8.07;;;5.63;;
22024;SDS011;11176;51.448;6.650;2023-05-07T00:32:11;8.73;;;6.15;;
22024;SDS011;11176;51.448;6.650;2023-05-07T00:34:39;7.22;;;5.55;;
22024;SDS011;11176;51.448;6.650;2023-05-07T00:37:05;7.25;;;5.70;;
22024;SDS011;11176;51.448;6.650;2023-05-07T00:39:33;8.80;;;5.97;;
22024;SDS011;11176;51.448;6.650;2023-05-07T00:41:59;8.40;;;6.22;;
22024;SDS011;11176;51.448;6.650;2023-05-07T00:44:26;6.85;;;5.43;;
22024;SDS011;11176;51.448;6.650;2023-05-07T00:46:54;11.38;;;6.60;;
22024;SDS011;11176;51.448;6.650;2023-05-07T00:49:22;8.57;;;6.13;;
22024;SDS011;11176;51.448;6.650;2023-05-07T00:51:51;8.35;;;6.22;;
22024;SDS011;11176;51.448;6.650;2023-05-07T00:54:17;8.55;;;6.28;;
22024;SDS011;11176;51.448;6.650;2023-05-07T00:56:45;8.05;;;6.55;;
22024;SDS011;11176;51.448;6.650;2023-05-07T00:59:12;10.98;;;7.45;;
22024;SDS011;11176;51.448;6.650;2023-05-07T01:01:38;7.65;;;6.45;;
22024;SDS011;11176;51.448;6.650;2023-05-07T01:04:05;7.45;;;5.63;;
22024;SDS011;11176;51.448;6.650;2023-05-07T01:06:32;9.30;;;6.53;;
22024;SDS011;11176;51.448;6.650;2023-05-07T01:09:00;9.93;;;6.60;;
22024;SDS011;11176;51.448;6.650;2023-05-07T01:11:26;10.43;;;7.35;;
22024;SDS011;11176;51.448;6.650;2023-05-07T01:13:54;8.85;;;7.22;;
22024;SDS011;11176;51.448;6.650;2023-05-07T01:16:20;10.68;;;7.78;;
22024;SDS011;11176;51.448;6.650;2023-05-07T01:18:48;9.98;;;7.93;;
22024;SDS011;11176;51.448;6.650;2023-05-07T01:21:16;13.07;;;8.35;;
22024;SDS011;11176;51.448;6.650;2023-05-07T01:23:44;9.80;;;7.55;;
22024;SDS011;11176;51.448;6.650;2023-05-07T01:26:12;9.85;;;7.45;;
22024;SDS011;11176;51.448;6.650;2023-05-07T01:28:41;9.60;;;7.72;;
22024;SDS011;11176;51.448;6.650;2023-05-07T01:31:07;9.85;;;6.93;;
22024;SDS011;11176;51.448;6.650;2023-05-07T01:33:35;8.68;;;6.93;;
22024;SDS011;11176;51.448;6.650;2023-05-07T01:36:04;8.15;;;7.25;;
22024;SDS011;11176;51.448;6.650;2023-05-07T01:38:33;9.32;;;7.45;;
22024;SDS011;11176;51.448;6.650;2023-05-07T01:41:01;9.77;;;6.78;;
22024;SDS011;11176;51.448;6.650;2023-05-07T01:43:28;9.00;;;6.90;;
22024;SDS011;11176;51.448;6.650;2023-05-07T01:45:57;10.07;;;7.38;;
22024;SDS011;11176;51.448;6.650;2023-05-07T01:48:25;8.15;;;6.93;;
22024;SDS011;11176;51.448;6.650;2023-05-07T01:50:52;8.90;;;6.78;;
22024;SDS011;11176;51.448;6.650;2023-05-07T01:53:18;10.00;;;7.40;;
22024;SDS011;11176;51.448;6.650;2023-05-07T01:55:45;9.88;;;7.45;;
22024;SDS011;11176;51.448;6.650;2023-05-07T01:58:11;8.60;;;7.00;;
22024;SDS011;11176;51.448;6.650;2023-05-07T02:00:39;8.70;;;6.88;;
22024;SDS011;11176;51.448;6.650;2023-05-07T02:03:07;8.65;;;6.82;;
22024;SDS011;11176;51.448;6.650;2023-05-07T02:05:44;8.90;;;7.35;;
22024;SDS011;11176;51.448;6.650;2023-05-07T02:08:21;10.40;;;7.35;;
22024;SDS011;11176;51.448;6.650;2023-05-07T02:10:47;10.23;;;7.47;;
22024;SDS011;11176;51.448;6.650;2023-05-07T02:13:14;11.27;;;7.68;;
22024;SDS011;11176;51.448;6.650;2023-05-07T02:15:41;9.40;;;7.18;;
22024;SDS011;11176;51.448;6.650;2023-05-07T02:18:08;8.00;;;7.10;;
22024;SDS011;11176;51.448;6.650;2023-05-07T02:20:35;8.82;;;7.38;;
22024;SDS011;11176;51.448;6.650;2023-05-07T02:23:02;10.10;;;7.97;;
22024;SDS011;11176;51.448;6.650;2023-05-07T02:25:29;10.88;;;8.38;;
22024;SDS011;11176;51.448;6.650;2023-05-07T02:27:56;10.63;;;8.27;;
22024;SDS011;11176;51.448;6.650;2023-05-07T02:30:32;11.38;;;8.65;;
22024;SDS011;11176;51.448;6.650;2023-05-07T02:32:59;9.05;;;7.65;;
22024;SDS011;11176;51.448;6.650;2023-05-07T02:35:26;11.02;;;8.57;;
22024;SDS011;11176;51.448;6.650;2023-05-07T02:37:53;10.35;;;8.18;;
22024;SDS011;11176;51.448;6.650;2023-05-07T02:40:20;12.30;;;8.63;;
22024;SDS011;11176;51.448;6.650;2023-05-07T02:42:47;10.25;;;8.63;;
22024;SDS011;11176;51.448;6.650;2023-05-07T02:45:14;10.88;;;8.43;;
22024;SDS011;11176;51.448;6.650;2023-05-07T02:47:42;9.90;;;8.60;;
22024;SDS011;11176;51.448;6.650;2023-05-07T02:50:09;11.32;;;8.57;;
22024;SDS011;11176;51.448;6.650;2023-05-07T02:52:36;11.85;;;8.45;;
22024;SDS011;11176;51.448;6.650;2023-05-07T02:55:03;10.50;;;8.45;;
22024;SDS011;11176;51.448;6.650;2023-05-07T02:57:30;10.95;;;9.20;;
22024;SDS011;11176;51.448;6.650;2023-05-07T02:59:57;11.38;;;9.25;;
22024;SDS011;11176;51.448;6.650;2023-05-07T03:02:24;12.90;;;8.80;;
22024;SDS011;11176;51.448;6.650;2023-05-07T03:04:51;11.38;;;8.57;;
22024;SDS011;11176;51.448;6.650;2023-05-07T03:07:18;13.55;;;10.63;;
22024;SDS011;11176;51.448;6.650;2023-05-07T03:09:45;12.20;;;9.57;;
22024;SDS011;11176;51.448;6.650;2023-05-07T03:12:11;12.15;;;9.05;;
22024;SDS011;11176;51.448;6.650;2023-05-07T03:14:38;11.95;;;9.23;;
22024;SDS011;11176;51.448;6.650;2023-05-07T03:17:04;13.55;;;10.13;;
22024;SDS011;11176;51.448;6.650;2023-05-07T03:19:31;12.32;;;8.93;;
22024;SDS011;11176;51.448;6.650;2023-05-07T03:21:57;12.52;;;9.57;;
22024;SDS011;11176;51.448;6.650;2023-05-07T03:24:24;11.65;;;9.43;;
22024;SDS011;11176;51.448;6.650;2023-05-07T03:26:51;12.52;;;9.65;;
22024;SDS011;11176;51.448;6.650;2023-05-07T03:29:17;10.48;;;8.30;;
22024;SDS011;11176;51.448;6.650;2023-05-07T03:31:44;13.15;;;9.32;;
22024;SDS011;11176;51.448;6.650;2023-05-07T03:34:11;10.60;;;9.48;;
22024;SDS011;11176;51.448;6.650;2023-05-07T03:36:37;11.25;;;9.10;;
22024;SDS011;11176;51.448;6.650;2023-05-07T03:39:07;11.13;;;9.18;;
22024;SDS011;11176;51.448;6.650;2023-05-07T03:41:37;10.82;;;8.88;;
22024;SDS011;11176;51.448;6.650;2023-05-07T03:44:04;12.02;;;9.30;;
22024;SDS011;11176;51.448;6.650;2023-05-07T03:46:31;12.00;;;9.65;;
22024;SDS011;11176;51.448;6.650;2023-05-07T03:48:59;12.60;;;9.82;;
22024;SDS011;11176;51.448;6.650;2023-05-07T03:51:26;13.63;;;10.45;;
22024;SDS011;11176;51.448;6.650;2023-05-07T03:53:53;15.18;;;11.80;;
22024;SDS011;11176;51.448;6.650;2023-05-07T03:56:20;13.95;;;11.50;;
22024;SDS011;11176;51.448;6.650;2023-05-07T03:58:52;16.35;;;11.73;;
22024;SDS011;11176;51.448;6.650;2023-05-07T04:01:19;13.57;;;11.27;;
22024;SDS011;11176;51.448;6.650;2023-05-07T04:03:47;13.95;;;10.80;;
22024;SDS011;11176;51.448;6.650;2023-05-07T04:06:15;14.73;;;11.00;;
22024;SDS011;11176;51.448;6.650;2023-05-07T04:08:45;14.38;;;10.57;;
22024;SDS011;11176;51.448;6.650;2023-05-07T04:11:12;13.13;;;10.55;;
22024;SDS011;11176;51.448;6.650;2023-05-07T04:13:39;13.45;;;10.55;;
22024;SDS011;11176;51.448;6.650;2023-05-07T04:16:07;13.00;;;10.52;;
22024;SDS011;11176;51.448;6.650;2023-05-07T04:18:36;16.05;;;11.60;;
22024;SDS011;11176;51.448;6.650;2023-05-07T04:21:03;12.52;;;10.38;;
22024;SDS011;11176;51.448;6.650;2023-05-07T04:23:30;12.32;;;10.80;;
22024;SDS011;11176;51.448;6.650;2023-05-07T04:26:01;12.30;;;10.15;;
22024;SDS011;11176;51.448;6.650;2023-05-07T04:28:36;15.00;;;10.82;;
22024;SDS011;11176;51.448;6.650;2023-05-07T04:31:03;14.13;;;11.20;;
22024;SDS011;11176;51.448;6.650;2023-05-07T04:33:32;14.18;;;10.25;;
22024;SDS011;11176;51.448;6.650;2023-05-07T04:36:02;13.57;;;10.13;;
22024;SDS011;11176;51.448;6.650;2023-05-07T04:38:34;13.55;;;10.48;;
22024;SDS011;11176;51.448;6.650;2023-05-07T04:41:03;12.52;;;10.60;;
22024;SDS011;11176;51.448;6.650;2023-05-07T04:43:34;13.48;;;10.73;;
22024;SDS011;11176;51.448;6.650;2023-05-07T04:46:01;15.02;;;10.80;;
22024;SDS011;11176;51.448;6.650;2023-05-07T04:48:28;12.95;;;10.93;;
22024;SDS011;11176;51.448;6.650;2023-05-07T04:50:56;14.35;;;10.90;;
22024;SDS011;11176;51.448;6.650;2023-05-07T04:53:23;13.63;;;10.90;;
22024;SDS011;11176;51.448;6.650;2023-05-07T04:55:55;16.60;;;12.25;;
22024;SDS011;11176;51.448;6.650;2023-05-07T04:58:25;17.63;;;12.13;;
22024;SDS011;11176;51.448;6.650;2023-05-07T05:00:52;16.73;;;12.13;;
22024;SDS011;11176;51.448;6.650;2023-05-07T05:03:18;14.15;;;11.30;;
22024;SDS011;11176;51.448;6.650;2023-05-07T05:05:45;14.00;;;11.68;;
22024;SDS011;11176;51.448;6.650;2023-05-07T05:08:12;16.80;;;12.18;;
22024;SDS011;11176;51.448;6.650;2023-05-07T05:10:41;13.35;;;11.15;;
22024;SDS011;11176;51.448;6.650;2023-05-07T05:13:09;15.93;;;11.43;;
22024;SDS011;11176;51.448;6.650;2023-05-07T05:15:39;14.57;;;12.02;;
22024;SDS011;11176;51.448;6.650;2023-05-07T05:18:06;16.08;;;12.35;;
22024;SDS011;11176;51.448;6.650;2023-05-07T05:20:33;14.90;;;11.88;;
22024;SDS011;11176;51.448;6.650;2023-05-07T05:23:00;15.13;;;12.32;;
22024;SDS011;11176;51.448;6.650;2023-05-07T05:25:27;14.68;;;11.82;;
22024;SDS011;11176;51.448;6.650;2023-05-07T05:27:55;15.27;;;11.40;;
22024;SDS011;11176;51.448;6.650;2023-05-07T05:30:22;14.07;;;11.88;;
22024;SDS011;11176;51.448;6.650;2023-05-07T05:32:49;15.02;;;11.75;;
22024;SDS011;11176;51.448;6.650;2023-05-07T05:35:15;17.17;;;12.23;;
22024;SDS011;11176;51.448;6.650;2023-05-07T05:37:42;14.27;;;11.73;;
22024;SDS011;11176;51.448;6.650;2023-05-07T05:40:09;14.40;;;11.82;;
22024;SDS011;11176;51.448;6.650;2023-05-07T05:42:36;17.02;;;13.30;;
22024;SDS011;11176;51.448;6.650;2023-05-07T05:45:03;18.63;;;13.07;;
22024;SDS011;11176;51.448;6.650;2023-05-07T05:47:31;16.15;;;13.07;;
22024;SDS011;11176;51.448;6.650;2023-05-07T05:49:58;18.25;;;13.48;;
22024;SDS011;11176;51.448;6.650;2023-05-07T05:52:25;16.83;;;12.18;;
22024;SDS011;11176;51.448;6.650;2023-05-07T05:54:53;17.65;;;13.00;;
22024;SDS011;11176;51.448;6.650;2023-05-07T05:57:20;16.20;;;14.18;;
22024;SDS011;11176;51.448;6.650;2023-05-07T05:59:46;17.20;;;13.32;;
22024;SDS011;11176;51.448;6.650;2023-05-07T06:02:13;15.70;;;12.90;;
22024;SDS011;11176;51.448;6.650;2023-05-07T06:04:40;16.88;;;13.38;;
22024;SDS011;11176;51.448;6.650;2023-05-07T06:07:10;15.73;;;12.30;;
22024;SDS011;11176;51.448;6.650;2023-05-07T06:09:37;19.58;;;13.13;;
22024;SDS011;11176;51.448;6.650;2023-05-07T06:12:04;15.90;;;12.88;;
22024;SDS011;11176;51.448;6.650;2023-05-07T06:14:31;16.70;;;12.70;;
22024;SDS011;11176;51.448;6.650;2023-05-07T06:16:57;15.73;;;12.70;;
22024;SDS011;11176;51.448;6.650;2023-05-07T06:19:25;14.35;;;11.95;;
22024;SDS011;11176;51.448;6.650;2023-05-07T06:21:56;14.20;;;12.20;;
22024;SDS011;11176;51.448;6.650;2023-05-07T06:24:24;15.70;;;11.40;;
22024;SDS011;11176;51.448;6.650;2023-05-07T06:26:50;16.23;;;11.40;;
22024;SDS011;11176;51.448;6.650;2023-05-07T06:29:17;13.45;;;10.15;;
22024;SDS011;11176;51.448;6.650;2023-05-07T06:31:44;11.82;;;9.60;;
22024;SDS011;11176;51.448;6.650;2023-05-07T06:34:11;10.95;;;9.20;;
22024;SDS011;11176;51.448;6.650;2023-05-07T06:36:40;12.40;;;8.95;;
22024;SDS011;11176;51.448;6.650;2023-05-07T06:39:15;10.30;;;8.07;;
22024;SDS011;11176;51.448;6.650;2023-05-07T06:41:42;9.95;;;7.40;;
22024;SDS011;11176;51.448;6.650;2023-05-07T06:44:19;8.68;;;6.93;;
22024;SDS011;11176;51.448;6.650;2023-05-07T06:46:57;8.23;;;6.63;;
22024;SDS011;11176;51.448;6.650;2023-05-07T06:49:23;10.80;;;7.07;;
22024;SDS011;11176;51.448;6.650;2023-05-07T06:51:50;9.27;;;6.40;;
22024;SDS011;11176;51.448;6.650;2023-05-07T06:54:17;11.10;;;6.80;;
22024;SDS011;11176;51.448;6.650;2023-05-07T06:56:45;11.07;;;6.20;;
22024;SDS011;11176;51.448;6.650;2023-05-07T06:59:12;8.13;;;5.40;;
22024;SDS011;11176;51.448;6.650;2023-05-07T07:01:40;6.45;;;5.22;;
22024;SDS011;11176;51.448;6.650;2023-05-07T07:04:08;7.22;;;5.25;;
22024;SDS011;11176;51.448;6.650;2023-05-07T07:06:36;8.55;;;6.15;;
22024;SDS011;11176;51.448;6.650;2023-05-07T07:09:07;8.43;;;5.65;;
22024;SDS011;11176;51.448;6.650;2023-05-07T07:11:34;7.95;;;5.85;;
22024;SDS011;11176;51.448;6.650;2023-05-07T07:14:01;7.68;;;5.45;;
22024;SDS011;11176;51.448;6.650;2023-05-07T07:16:31;9.20;;;5.53;;
22024;SDS011;11176;51.448;6.650;2023-05-07T07:18:58;6.93;;;5.07;;
22024;SDS011;11176;51.448;6.650;2023-05-07T07:21:25;7.93;;;5.13;;
22024;SDS011;11176;51.448;6.650;2023-05-07T07:23:52;6.18;;;4.22;;
22024;SDS011;11176;51.448;6.650;2023-05-07T07:26:19;6.97;;;4.55;;
22024;SDS011;11176;51.448;6.650;2023-05-07T07:28:47;6.88;;;4.88;;
22024;SDS011;11176;51.448;6.650;2023-05-07T07:31:17;6.60;;;4.18;;
22024;SDS011;11176;51.448;6.650;2023-05-07T07:33:45;6.72;;;4.20;;
22024;SDS011;11176;51.448;6.650;2023-05-07T07:36:11;5.72;;;3.88;;
22024;SDS011;11176;51.448;6.650;2023-05-07T07:38:38;5.55;;;3.17;;
22024;SDS011;11176;51.448;6.650;2023-05-07T07:41:05;4.38;;;3.10;;
22024;SDS011;11176;51.448;6.650;2023-05-07T07:43:34;6.03;;;3.35;;
22024;SDS011;11176;51.448;6.650;2023-05-07T07:46:03;5.45;;;3.38;;
22024;SDS011;11176;51.448;6.650;2023-05-07T07:48:30;7.75;;;3.13;;
22024;SDS011;11176;51.448;6.650;2023-05-07T07:50:57;5.72;;;3.65;;
22024;SDS011;11176;51.448;6.650;2023-05-07T07:53:24;4.32;;;3.08;;
22024;SDS011;11176;51.448;6.650;2023-05-07T07:55:51;4.68;;;2.97;;
22024;SDS011;11176;51.448;6.650;2023-05-07T07:58:25;5.10;;;3.00;;
22024;SDS011;11176;51.448;6.650;2023-05-07T08:00:53;5.65;;;3.03;;
22024;SDS011;11176;51.448;6.650;2023-05-07T08:03:22;5.05;;;2.78;;
22024;SDS011;11176;51.448;6.650;2023-05-07T08:05:53;6.38;;;3.38;;
22024;SDS011;11176;51.448;6.650;2023-05-07T08:08:19;5.18;;;3.08;;
22024;SDS011;11176;51.448;6.650;2023-05-07T08:10:51;4.65;;;2.55;;
22024;SDS011;11176;51.448;6.650;2023-05-07T08:13:25;5.80;;;3.03;;
22024;SDS011;11176;51.448;6.650;2023-05-07T08:15:52;5.78;;;3.38;;
22024;SDS011;11176;51.448;6.650;2023-05-07T08:18:19;4.32;;;2.80;;
22024;SDS011;11176;51.448;6.650;2023-05-07T08:20:46;4.20;;;2.90;;
22024;SDS011;11176;51.448;6.650;2023-05-07T08:23:17;5.75;;;3.20;;
22024;SDS011;11176;51.448;6.650;2023-05-07T08:25:44;4.43;;;2.75;;
22024;SDS011;11176;51.448;6.650;2023-05-07T08:28:12;4.70;;;2.70;;
22024;SDS011;11176;51.448;6.650;2023-05-07T08:30:40;4.93;;;2.92;;
22024;SDS011;11176;51.448;6.650;2023-05-07T08:33:08;5.68;;;3.13;;
22024;SDS011;11176;51.448;6.650;2023-05-07T08:35:35;5.45;;;2.70;;
22024;SDS011;11176;51.448;6.650;2023-05-07T08:38:02;4.30;;;2.90;;
22024;SDS011;11176;51.448;6.650;2023-05-07T08:40:29;5.00;;;3.08;;
22024;SDS011;11176;51.448;6.650;2023-05-07T08:45:29;5.63;;;2.92;;
22024;SDS011;11176;51.448;6.650;2023-05-07T08:47:59;4.40;;;2.67;;
22024;SDS011;11176;51.448;6.650;2023-05-07T08:50:34;7.25;;;2.78;;
22024;SDS011;11176;51.448;6.650;2023-05-07T08:53:03;4.88;;;2.75;;
22024;SDS011;11176;51.448;6.650;2023-05-07T08:55:31;5.32;;;2.78;;
22024;SDS011;11176;51.448;6.650;2023-05-07T08:57:59;4.55;;;2.78;;
22024;SDS011;11176;51.448;6.650;2023-05-07T09:00:28;5.28;;;3.10;;
22024;SDS011;11176;51.448;6.650;2023-05-07T09:02:57;6.07;;;3.35;;
22024;SDS011;11176;51.448;6.650;2023-05-07T09:05:24;5.47;;;3.42;;
22024;SDS011;11176;51.448;6.650;2023-05-07T09:07:51;4.97;;;3.17;;
22024;SDS011;11176;51.448;6.650;2023-05-07T09:10:20;6.32;;;3.22;;
22024;SDS011;11176;51.448;6.650;2023-05-07T09:12:48;6.55;;;3.30;;
22024;SDS011;11176;51.448;6.650;2023-05-07T09:15:16;4.45;;;3.13;;
22024;SDS011;11176;51.448;6.650;2023-05-07T09:17:43;4.88;;;3.20;;
22024;SDS011;11176;51.448;6.650;2023-05-07T09:20:11;4.07;;;2.92;;
22024;SDS011;11176;51.448;6.650;2023-05-07T09:22:38;7.32;;;3.00;;
22024;SDS011;11176;51.448;6.650;2023-05-07T09:25:09;4.43;;;2.58;;
22024;SDS011;11176;51.448;6.650;2023-05-07T09:27:37;3.90;;;2.70;;
22024;SDS011;11176;51.448;6.650;2023-05-07T09:30:04;4.22;;;2.45;;
22024;SDS011;11176;51.448;6.650;2023-05-07T09:32:34;4.15;;;1.55;;
22024;SDS011;11176;51.448;6.650;2023-05-07T09:35:05;4.05;;;1.75;;
22024;SDS011;11176;51.448;6.650;2023-05-07T09:37:32;3.60;;;1.95;;
22024;SDS011;11176;51.448;6.650;2023-05-07T09:39:59;3.83;;;2.10;;
22024;SDS011;11176;51.448;6.650;2023-05-07T09:42:28;3.40;;;2.10;;
22024;SDS011;11176;51.448;6.650;2023-05-07T09:44:59;5.35;;;2.80;;
22024;SDS011;11176;51.448;6.650;2023-05-07T09:47:32;4.43;;;2.15;;
22024;SDS011;11176;51.448;6.650;2023-05-07T09:49:59;4.25;;;1.90;;
22024;SDS011;11176;51.448;6.650;2023-05-07T09:52:32;3.43;;;1.33;;
22024;SDS011;11176;51.448;6.650;2023-05-07T09:55:03;3.35;;;1.33;;
22024;SDS011;11176;51.448;6.650;2023-05-07T09:57:32;2.78;;;1.27;;
22024;SDS011;11176;51.448;6.650;2023-05-07T10:00:03;3.75;;;1.30;;
22024;SDS011;11176;51.448;6.650;2023-05-07T10:02:50;2.63;;;1.27;;
22024;SDS011;11176;51.448;6.650;2023-05-07T10:05:29;4.60;;;1.50;;
22024;SDS011;11176;51.448;6.650;2023-05-07T10:07:58;4.43;;;2.03;;
22024;SDS011;11176;51.448;6.650;2023-05-07T10:10:29;3.92;;;1.70;;
22024;SDS011;11176;51.448;6.650;2023-05-07T10:12:57;3.58;;;1.55;;
22024;SDS011;11176;51.448;6.650;2023-05-07T10:15:31;3.55;;;1.30;;
22024;SDS011;11176;51.448;6.650;2023-05-07T10:18:00;3.50;;;1.70;;
22024;SDS011;11176;51.448;6.650;2023-05-07T10:20:28;3.58;;;1.50;;
22024;SDS011;11176;51.448;6.650;2023-05-07T10:22:55;3.83;;;1.50;;
22024;SDS011;11176;51.448;6.650;2023-05-07T10:25:32;6.00;;;1.88;;
22024;SDS011;11176;51.448;6.650;2023-05-07T10:28:06;3.30;;;1.30;;
22024;SDS011;11176;51.448;6.650;2023-05-07T10:33:35;3.35;;;1.73;;
22024;SDS011;11176;51.448;6.650;2023-05-07T10:36:04;3.58;;;1.70;;
22024;SDS011;11176;51.448;6.650;2023-05-07T10:38:32;3.13;;;1.42;;
22024;SDS011;11176;51.448;6.650;2023-05-07T10:41:00;2.85;;;1.40;;
22024;SDS011;11176;51.448;6.650;2023-05-07T10:43:39;3.78;;;1.50;;
22024;SDS011;11176;51.448;6.650;2023-05-07T10:46:18;2.75;;;1.58;;
22024;SDS011;11176;51.448;6.650;2023-05-07T10:52:14;4.18;;;1.50;;
22024;SDS011;11176;51.448;6.650;2023-05-07T11:04:41;3.67;;;1.50;;
22024;SDS011;11176;51.448;6.650;2023-05-07T11:07:24;3.80;;;1.50;;
22024;SDS011;11176;51.448;6.650;2023-05-07T11:10:00;2.13;;;1.10;;
22024;SDS011;11176;51.448;6.650;2023-05-07T11:15:33;2.65;;;1.30;;
22024;SDS011;11176;51.448;6.650;2023-05-07T11:18:11;3.17;;;1.40;;
22024;SDS011;11176;51.448;6.650;2023-05-07T11:26:11;3.00;;;1.23;;
22024;SDS011;11176;51.448;6.650;2023-05-07T11:28:42;3.08;;;1.60;;
22024;SDS011;11176;51.448;6.650;2023-05-07T11:31:10;4.38;;;1.50;;
22024;SDS011;11176;51.448;6.650;2023-05-07T11:33:39;4.32;;;1.67;;
22024;SDS011;11176;51.448;6.650;2023-05-07T11:36:11;3.63;;;1.60;;
22024;SDS011;11176;51.448;6.650;2023-05-07T11:38:44;4.03;;;1.67;;
22024;SDS011;11176;51.448;6.650;2023-05-07T11:41:11;3.63;;;1.30;;
22024;SDS011;11176;51.448;6.650;2023-05-07T11:43:37;3.42;;;1.50;;
22024;SDS011;11176;51.448;6.650;2023-05-07T11:46:07;4.60;;;1.85;;
22024;SDS011;11176;51.448;6.650;2023-05-07T11:48:35;3.92;;;1.60;;
22024;SDS011;11176;51.448;6.650;2023-05-07T11:51:05;3.83;;;1.60;;
22024;SDS011;11176;51.448;6.650;2023-05-07T11:53:36;3.30;;;1.48;;
22024;SDS011;11176;51.448;6.650;2023-05-07T11:56:07;3.17;;;1.52;;
22024;SDS011;11176;51.448;6.650;2023-05-07T11:58:34;2.55;;;1.30;;
22024;SDS011;11176;51.448;6.650;2023-05-07T12:01:01;2.78;;;1.70;;
22024;SDS011;11176;51.448;6.650;2023-05-07T12:03:27;4.57;;;1.88;;
22024;SDS011;11176;51.448;6.650;2023-05-07T12:05:57;2.70;;;1.42;;
22024;SDS011;11176;51.448;6.650;2023-05-07T12:08:23;3.67;;;1.42;;
22024;SDS011;11176;51.448;6.650;2023-05-07T12:10:50;4.82;;;1.83;;
22024;SDS011;11176;51.448;6.650;2023-05-07T12:13:18;5.68;;;1.60;;
22024;SDS011;11176;51.448;6.650;2023-05-07T12:15:45;4.05;;;1.70;;
22024;SDS011;11176;51.448;6.650;2023-05-07T12:18:12;2.60;;;1.30;;
22024;SDS011;11176;51.448;6.650;2023-05-07T12:20:39;3.35;;;1.60;;
22024;SDS011;11176;51.448;6.650;2023-05-07T12:23:06;3.45;;;1.40;;
22024;SDS011;11176;51.448;6.650;2023-05-07T12:25:36;3.63;;;1.70;;
22024;SDS011;11176;51.448;6.650;2023-05-07T12:28:04;4.65;;;1.80;;
22024;SDS011;11176;51.448;6.650;2023-05-07T12:30:40;4.93;;;1.70;;
22024;SDS011;11176;51.448;6.650;2023-05-07T12:33:06;5.03;;;1.83;;
22024;SDS011;11176;51.448;6.650;2023-05-07T12:35:41;4.63;;;1.70;;
22024;SDS011;11176;51.448;6.650;2023-05-07T12:38:09;3.50;;;1.58;;
22024;SDS011;11176;51.448;6.650;2023-05-07T12:40:39;5.13;;;1.70;;
22024;SDS011;11176;51.448;6.650;2023-05-07T12:43:06;4.60;;;1.58;;
22024;SDS011;11176;51.448;6.650;2023-05-07T12:45:41;4.32;;;1.42;;
22024;SDS011;11176;51.448;6.650;2023-05-07T12:48:09;3.83;;;2.00;;
22024;SDS011;11176;51.448;6.650;2023-05-07T12:50:36;5.00;;;1.80;;
22024;SDS011;11176;51.448;6.650;2023-05-07T12:53:06;3.30;;;1.55;;
22024;SDS011;11176;51.448;6.650;2023-05-07T12:55:40;3.60;;;1.88;;
22024;SDS011;11176;51.448;6.650;2023-05-07T12:58:08;3.40;;;1.70;;
22024;SDS011;11176;51.448;6.650;2023-05-07T13:00:42;4.60;;;1.52;;
22024;SDS011;11176;51.448;6.650;2023-05-07T13:03:09;5.80;;;2.05;;
22024;SDS011;11176;51.448;6.650;2023-05-07T13:05:37;4.15;;;2.08;;
22024;SDS011;11176;51.448;6.650;2023-05-07T13:08:03;4.20;;;1.98;;
22024;SDS011;11176;51.448;6.650;2023-05-07T13:10:30;4.80;;;1.70;;
22024;SDS011;11176;51.448;6.650;2023-05-07T13:12:57;3.60;;;1.70;;
22024;SDS011;11176;51.448;6.650;2023-05-07T13:15:23;9.52;;;3.65;;
22024;SDS011;11176;51.448;6.650;2023-05-07T13:17:50;4.63;;;2.50;;
22024;SDS011;11176;51.448;6.650;2023-05-07T13:20:17;3.55;;;1.98;;
22024;SDS011;11176;51.448;6.650;2023-05-07T13:22:43;3.53;;;1.90;;
22024;SDS011;11176;51.448;6.650;2023-05-07T13:25:10;3.72;;;1.85;;
22024;SDS011;11176;51.448;6.650;2023-05-07T13:27:37;3.22;;;1.52;;
22024;SDS011;11176;51.448;6.650;2023-05-07T13:30:03;2.55;;;1.60;;
22024;SDS011;11176;51.448;6.650;2023-05-07T13:32:31;3.97;;;1.90;;
22024;SDS011;11176;51.448;6.650;2023-05-07T13:34:58;4.53;;;2.10;;
22024;SDS011;11176;51.448;6.650;2023-05-07T13:37:24;3.70;;;1.92;;
22024;SDS011;11176;51.448;6.650;2023-05-07T13:39:51;3.00;;;1.65;;
22024;SDS011;11176;51.448;6.650;2023-05-07T13:42:17;3.55;;;1.70;;
22024;SDS011;11176;51.448;6.650;2023-05-07T13:44:44;3.80;;;1.80;;
22024;SDS011;11176;51.448;6.650;2023-05-07T13:47:11;2.70;;;1.67;;
22024;SDS011;11176;51.448;6.650;2023-05-07T13:49:37;3.50;;;1.60;;
22024;SDS011;11176;51.448;6.650;2023-05-07T13:52:06;3.28;;;1.85;;
22024;SDS011;11176;51.448;6.650;2023-05-07T13:54:33;3.65;;;1.98;;
22024;SDS011;11176;51.448;6.650;2023-05-07T13:56:59;3.30;;;1.77;;
22024;SDS011;11176;51.448;6.650;2023-05-07T13:59:26;3.85;;;2.10;;
22024;SDS011;11176;51.448;6.650;2023-05-07T14:01:54;5.30;;;2.17;;
22024;SDS011;11176;51.448;6.650;2023-05-07T14:04:21;3.80;;;1.65;;
22024;SDS011;11176;51.448;6.650;2023-05-07T14:06:47;5.40;;;2.05;;
22024;SDS011;11176;51.448;6.650;2023-05-07T14:09:13;3.83;;;1.92;;
22024;SDS011;11176;51.448;6.650;2023-05-07T14:11:40;4.80;;;1.90;;
22024;SDS011;11176;51.448;6.650;2023-05-07T14:14:07;4.93;;;2.47;;
22024;SDS011;11176;51.448;6.650;2023-05-07T14:16:36;3.60;;;2.13;;
22024;SDS011;11176;51.448;6.650;2023-05-07T14:19:03;6.13;;;2.90;;
22024;SDS011;11176;51.448;6.650;2023-05-07T14:21:29;5.70;;;2.42;;
22024;SDS011;11176;51.448;6.650;2023-05-07T14:23:56;6.47;;;2.95;;
22024;SDS011;11176;51.448;6.650;2023-05-07T14:26:23;5.25;;;2.65;;
22024;SDS011;11176;51.448;6.650;2023-05-07T14:28:49;5.38;;;2.88;;
22024;SDS011;11176;51.448;6.650;2023-05-07T14:31:16;5.43;;;2.40;;
22024;SDS011;11176;51.448;6.650;2023-05-07T14:33:42;3.50;;;2.30;;
22024;SDS011;11176;51.448;6.650;2023-05-07T14:36:09;4.35;;;2.53;;
22024;SDS011;11176;51.448;6.650;2023-05-07T14:38:36;5.13;;;2.80;;
22024;SDS011;11176;51.448;6.650;2023-05-07T14:41:02;4.40;;;2.40;;
22024;SDS011;11176;51.448;6.650;2023-05-07T14:43:29;4.97;;;2.70;;
22024;SDS011;11176;51.448;6.650;2023-05-07T14:45:55;4.40;;;2.50;;
22024;SDS011;11176;51.448;6.650;2023-05-07T14:48:22;3.35;;;2.30;;
22024;SDS011;11176;51.448;6.650;2023-05-07T14:50:49;4.13;;;2.50;;
22024;SDS011;11176;51.448;6.650;2023-05-07T14:53:15;6.72;;;2.90;;
22024;SDS011;11176;51.448;6.650;2023-05-07T14:55:42;6.22;;;3.63;;
22024;SDS011;11176;51.448;6.650;2023-05-07T14:58:10;7.60;;;3.25;;
22024;SDS011;11176;51.448;6.650;2023-05-07T15:00:37;6.57;;;3.60;;
22024;SDS011;11176;51.448;6.650;2023-05-07T15:03:05;5.68;;;3.60;;
22024;SDS011;11176;51.448;6.650;2023-05-07T15:05:34;5.82;;;3.38;;
22024;SDS011;11176;51.448;6.650;2023-05-07T15:08:01;8.02;;;3.80;;
22024;SDS011;11176;51.448;6.650;2023-05-07T15:10:28;6.85;;;3.47;;
22024;SDS011;11176;51.448;6.650;2023-05-07T15:12:54;8.32;;;3.40;;